createdAt,value
2022-08-17T00:01:52.004Z,29.30
2022-08-17T00:07:57.212Z,29.48
2022-08-17T00:14:01.572Z,30.45
2022-08-17T00:20:05.474Z,31.33
2022-08-17T00:26:10.394Z,32.17
2022-08-17T00:33:14.104Z,33.17
2022-08-17T00:38:37.830Z,34.70
2022-08-17T00:44:42.555Z,33.92
2022-08-17T00:50:49.975Z,33.75
2022-08-17T00:56:55.140Z,31.85
2022-08-17T01:03:02.391Z,32.20
2022-08-17T01:09:08.681Z,33.63
2022-08-17T01:15:12.679Z,32.35
2022-08-17T01:21:22.357Z,31.30
2022-08-17T01:27:27.821Z,32.88
2022-08-17T01:33:31.207Z,35.88
2022-08-17T01:39:36.997Z,37.15
2022-08-17T01:45:44.597Z,38.75
2022-08-17T01:51:47.980Z,38.70
2022-08-17T01:57:51.627Z,40.15
2022-08-17T02:04:01.124Z,42.78
2022-08-17T02:10:06.415Z,44.47
2022-08-17T02:16:23.564Z,45.75
2022-08-17T02:22:29.091Z,46.88
2022-08-17T02:28:32.473Z,45.92
2022-08-17T02:34:35.962Z,41.15
2022-08-17T02:40:40.736Z,43.25
2022-08-17T02:46:44.245Z,43.47
2022-08-17T02:53:01.345Z,44.53
2022-08-17T02:59:06.929Z,45.05
2022-08-17T03:05:11.653Z,47.42
2022-08-17T03:11:15.057Z,49.20
2022-08-17T03:17:19.878Z,51.70
2022-08-17T03:23:24.074Z,56.00
2022-08-17T03:29:28.854Z,58.10
2022-08-17T03:35:35.000Z,52.85
2022-08-17T03:41:38.566Z,53.30
2022-08-17T03:47:59.668Z,56.95
2022-08-17T03:54:22.421Z,57.70
2022-08-17T04:00:26.855Z,57.45
2022-08-17T04:06:30.253Z,58.13
2022-08-17T04:12:45.726Z,58.85
2022-08-17T04:18:49.059Z,59.67
2022-08-17T04:24:52.422Z,58.88
2022-08-17T04:30:58.522Z,58.03
2022-08-17T04:37:02.178Z,56.00
2022-08-17T04:43:07.280Z,56.85
2022-08-17T04:49:13.107Z,58.90
2022-08-17T04:55:16.969Z,59.20
2022-08-17T05:01:24.090Z,59.45
2022-08-17T05:07:31.560Z,61.15
2022-08-17T05:13:35.194Z,59.30
2022-08-17T05:19:38.600Z,64.70
2022-08-17T05:25:46.757Z,65.95
2022-08-17T05:31:51.235Z,60.47
2022-08-17T05:37:56.747Z,59.33
2022-08-17T05:44:05.285Z,58.67
2022-08-17T05:50:10.131Z,58.50
2022-08-17T05:56:29.324Z,57.33
2022-08-17T06:02:47.535Z,56.58
2022-08-17T06:08:52.925Z,57.35
2022-08-17T06:15:04.107Z,54.58
2022-08-17T06:21:09.792Z,54.67
2022-08-17T06:27:15.199Z,53.83
2022-08-17T06:33:21.627Z,58.30
2022-08-17T06:39:30.932Z,59.00
2022-08-17T06:45:37.095Z,59.35
2022-08-17T06:51:41.566Z,61.50
2022-08-17T06:57:49.634Z,61.20
2022-08-17T07:03:55.493Z,59.72
2022-08-17T07:10:00.189Z,60.92
2022-08-17T07:16:19.494Z,60.67
2022-08-17T07:22:27.961Z,62.25
2022-08-17T07:28:32.254Z,58.38
2022-08-17T07:35:00.508Z,60.80
2022-08-17T07:41:05.394Z,61.20
2022-08-17T07:47:35.111Z,58.72
2022-08-17T07:53:39.852Z,57.75
2022-08-17T07:59:44.692Z,57.80
2022-08-17T08:05:56.768Z,54.70
2022-08-17T08:12:03.157Z,59.00
2022-08-17T08:18:08.294Z,57.65
2022-08-17T08:24:20.682Z,59.92
2022-08-17T08:30:25.593Z,57.58
2022-08-17T08:37:15.863Z,62.00
2022-08-17T08:43:10.162Z,59.45
2022-08-17T08:49:39.093Z,55.22
2022-08-17T08:55:49.948Z,53.33
2022-08-17T09:02:00.855Z,50.55
2022-08-17T09:08:09.317Z,47.67
2022-08-17T09:14:21.625Z,44.67
2022-08-17T09:20:28.871Z,45.50
2022-08-17T09:26:36.898Z,43.50
2022-08-17T09:32:41.730Z,43.78
2022-08-17T09:38:52.378Z,43.58
2022-08-17T09:45:00.506Z,43.45
2022-08-17T09:51:07.101Z,40.65
2022-08-17T09:57:29.129Z,43.25
2022-08-17T10:03:50.944Z,41.10
2022-08-17T10:09:59.196Z,40.67
2022-08-17T10:16:07.809Z,39.47
2022-08-17T10:22:34.721Z,39.47
2022-08-17T10:28:43.582Z,37.83
2022-08-17T10:34:59.389Z,39.47
2022-08-17T10:41:04.900Z,35.63
2022-08-17T10:47:11.722Z,35.25
2022-08-17T10:53:46.271Z,31.33
2022-08-17T10:59:52.060Z,32.38
2022-08-17T11:05:59.336Z,30.50
2022-08-17T11:12:13.932Z,28.48
2022-08-17T11:18:44.915Z,29.35
2022-08-17T11:24:51.480Z,28.17
2022-08-17T11:30:56.162Z,25.42
2022-08-17T11:37:08.415Z,26.40
2022-08-17T11:43:38.363Z,24.67
2022-08-17T11:50:11.767Z,23.52
2022-08-17T11:56:32.285Z,23.52
2022-08-17T12:02:47.429Z,24.25
2022-08-17T12:08:55.222Z,23.10
2022-08-17T12:15:10.635Z,23.50
2022-08-17T12:21:20.447Z,23.25
2022-08-17T12:28:04.399Z,23.42
2022-08-17T12:33:51.962Z,24.25
2022-08-17T12:39:58.873Z,24.35
2022-08-17T12:46:15.110Z,23.13
2022-08-17T12:52:23.695Z,19.23
2022-08-17T12:58:31.529Z,19.10
2022-08-17T13:04:34.969Z,23.40
2022-08-17T13:10:38.742Z,24.63
2022-08-17T13:16:49.410Z,26.38
2022-08-17T13:22:57.457Z,26.83
2022-08-17T13:29:01.958Z,22.48
2022-08-17T13:35:32.843Z,20.75
2022-08-17T13:41:43.178Z,18.92
2022-08-17T13:47:46.589Z,15.63
2022-08-17T13:54:02.440Z,14.40
2022-08-17T14:00:12.048Z,15.63
2022-08-17T14:06:52.134Z,14.45
2022-08-17T14:12:41.468Z,16.38
2022-08-17T14:18:56.444Z,17.88
2022-08-17T14:25:02.659Z,16.58
2022-08-17T14:31:07.782Z,16.55
2022-08-17T14:37:11.448Z,16.40
2022-08-17T14:43:15.910Z,18.48
2022-08-17T14:49:20.949Z,18.63
2022-08-17T14:55:24.440Z,20.33
2022-08-17T15:01:28.464Z,18.80
2022-08-17T15:07:33.292Z,17.20
2022-08-17T15:13:36.907Z,18.30
2022-08-17T15:19:56.325Z,21.13
2022-08-17T15:26:01.322Z,21.00
2022-08-17T15:32:05.808Z,19.40
2022-08-17T15:38:12.018Z,22.25
2022-08-17T15:44:17.261Z,20.23
2022-08-17T15:50:20.689Z,21.92
2022-08-17T15:56:25.371Z,22.52
2022-08-17T16:03:15.146Z,23.65
2022-08-17T16:08:55.890Z,22.58
2022-08-17T16:14:59.270Z,21.20
2022-08-17T16:21:19.350Z,19.95
2022-08-17T16:27:23.100Z,19.80
2022-08-17T16:33:26.459Z,18.27
2022-08-17T16:39:32.868Z,20.40
2022-08-17T16:45:40.327Z,22.27
2022-08-17T16:51:44.136Z,20.58
2022-08-17T16:57:50.547Z,22.25
2022-08-17T17:03:58.221Z,25.08
2022-08-17T17:10:04.525Z,24.23
2022-08-17T17:16:21.773Z,26.08
2022-08-17T17:22:27.901Z,27.75
2022-08-17T17:28:35.046Z,29.17
2022-08-17T17:34:41.695Z,28.75
2022-08-17T17:40:46.397Z,28.65
2022-08-17T17:46:50.931Z,26.83
2022-08-17T17:53:02.160Z,29.83
2022-08-17T17:59:12.899Z,29.40
2022-08-17T18:05:18.766Z,30.83
2022-08-17T18:11:45.637Z,33.35
2022-08-17T18:18:04.858Z,34.42
2022-08-17T18:24:10.519Z,36.42
2022-08-17T18:30:28.868Z,36.35
2022-08-17T18:36:33.786Z,33.65
2022-08-17T18:42:38.701Z,31.00
2022-08-17T18:48:53.459Z,25.75
2022-08-17T18:55:02.854Z,23.38
2022-08-17T19:01:18.780Z,21.10
2022-08-17T19:07:31.210Z,18.35
2022-08-17T19:13:36.963Z,18.27
2022-08-17T19:19:46.125Z,15.93
2022-08-17T19:25:53.763Z,15.30
2022-08-17T19:31:58.557Z,15.15
2022-08-17T19:38:12.746Z,15.13
2022-08-17T19:44:27.923Z,15.43
2022-08-17T19:50:38.505Z,16.10
2022-08-17T19:56:44.498Z,16.38
2022-08-17T20:02:53.435Z,15.45
2022-08-17T20:08:59.816Z,16.00
2022-08-17T20:15:06.250Z,16.67
2022-08-17T20:21:20.257Z,17.15
2022-08-17T20:27:31.769Z,17.77
2022-08-17T20:33:36.308Z,17.38
2022-08-17T20:39:44.272Z,18.75
2022-08-17T20:45:54.912Z,19.83
2022-08-17T20:52:02.841Z,20.67
2022-08-17T20:58:23.756Z,21.83
2022-08-17T21:04:47.457Z,20.45
2022-08-17T21:10:50.839Z,22.58
2022-08-17T21:17:12.252Z,23.17
2022-08-17T21:23:34.496Z,23.75
2022-08-17T21:29:52.763Z,24.88
2022-08-17T21:36:16.327Z,25.38
2022-08-17T21:42:23.906Z,24.13
2022-08-17T21:48:28.113Z,24.25
2022-08-17T21:54:34.707Z,23.35
2022-08-17T22:00:39.577Z,22.83
2022-08-17T22:06:52.621Z,24.33
2022-08-17T22:13:05.054Z,23.52
2022-08-17T22:19:11.409Z,23.85
2022-08-17T22:25:22.747Z,23.55
2022-08-17T22:31:27.805Z,23.92
2022-08-17T22:37:32.764Z,25.00
2022-08-17T22:43:43.098Z,23.65
2022-08-17T22:49:53.432Z,23.52
2022-08-17T22:56:16.697Z,24.60
2022-08-17T23:02:22.327Z,28.02
2022-08-17T23:08:25.764Z,27.55
2022-08-17T23:14:31.524Z,26.77
2022-08-17T23:20:35.846Z,26.20
2022-08-17T23:26:41.031Z,27.02
2022-08-17T23:32:53.547Z,29.30
2022-08-17T23:38:57.698Z,29.27
2022-08-17T23:45:01.044Z,27.33
2022-08-17T23:51:06.006Z,26.98
2022-08-17T23:57:09.912Z,27.48
